Terminal Aerodrome Forecast
Issued by NWS Brownsville, TX

Home | Current Version | Previous Version | Text Only | Print | Product List | Glossary On
Versions: 1 2 3 4 5 6 7 8 9 10 11 12 13 14
000
FTUS44 KBRO 291120
TAFBRO
TAF
KBRO 291120Z 2912/3012 10003KT P6SM SKC
     FM291400 15009KT P6SM SCT030 OVC060
     FM291900 13012KT P6SM SCT050
     FM300100 13007KT P6SM FEW030
     FM300600 14004KT P6SM OVC250=

USA.gov is the U.S. government's official web portal to all federal, state and local government web resources and services.